Time;durP1;ratioP1;P1;durP2;ratioP2;P2;SDS_P1;SDS_P2;PMS_P1;PMS_P2;Temp;Humidity;BMP_temperature;BMP_pressure;BME280_temperature;BME280_humidity;BME280_pressure;Samples;Min_cycle;Max_cycle;Signal;HPM_P1;HPM_P2
2023/07/18 00:01:39;;;;;;;;;;;22.80;48.10;;;;;;5031602;28;20023;-58
2023/07/18 00:04:07;;;;;;;;;;;22.80;48.20;;;;;;5032133;28;19924;-58
2023/07/18 00:06:34;;;;;;;;;;;22.80;48.20;;;;;;5025819;28;19978;-57
2023/07/18 00:09:04;;;;;;;;;;;22.80;48.30;;;;;;5030734;28;19939;-58
2023/07/18 00:11:30;;;;;;;;;;;22.80;48.30;;;;;;5029445;28;19958;-58
2023/07/18 00:13:57;;;;;;;;;;;22.80;48.30;;;;;;5026202;28;19925;-56
2023/07/18 00:16:24;;;;;;;;;;;22.80;48.40;;;;;;5031276;28;19948;-58
2023/07/18 00:18:51;;;;;;;;;;;22.80;48.40;;;;;;5033933;28;19947;-57
2023/07/18 00:21:19;;;;;;;;;;;22.80;48.50;;;;;;5030622;28;20051;-58
2023/07/18 00:23:46;;;;;;;;;;;22.80;49.10;;;;;;5027966;28;19956;-58
2023/07/18 00:26:14;;;;;;;;;;;22.80;48.50;;;;;;5028124;28;19954;-58
2023/07/18 00:28:40;;;;;;;;;;;22.80;48.50;;;;;;5031976;28;19925;-58
2023/07/18 00:31:07;;;;;;;;;;;22.80;48.60;;;;;;5021353;28;19928;-58
2023/07/18 00:33:34;;;;;;;;;;;22.80;48.60;;;;;;5029779;28;19978;-58
2023/07/18 00:36:02;;;;;;;;;;;22.80;48.60;;;;;;5034672;28;19929;-58
2023/07/18 00:38:30;;;;;;;;;;;22.80;48.70;;;;;;5034011;28;20019;-58
2023/07/18 00:40:57;;;;;;;;;;;22.80;48.70;;;;;;5031536;28;19920;-58
2023/07/18 00:43:23;;;;;;;;;;;22.80;48.70;;;;;;5033749;28;19929;-58
2023/07/18 00:45:50;;;;;;;;;;;22.80;48.70;;;;;;5044936;28;19924;-58
2023/07/18 00:48:17;;;;;;;;;;;22.80;48.80;;;;;;5045461;28;19986;-57
2023/07/18 00:50:44;;;;;;;;;;;22.80;48.80;;;;;;5027847;28;19924;-56
2023/07/18 00:53:11;;;;;;;;;;;22.80;48.80;;;;;;5048863;28;19925;-58
2023/07/18 00:55:39;;;;;;;;;;;22.80;48.90;;;;;;5027840;28;20329;-57
2023/07/18 00:58:05;;;;;;;;;;;22.80;48.90;;;;;;5031710;28;19975;-57
2023/07/18 01:00:32;;;;;;;;;;;22.80;48.90;;;;;;5027204;28;19929;-57
2023/07/18 01:02:59;;;;;;;;;;;22.80;49.00;;;;;;5027137;28;19925;-56
2023/07/18 01:05:26;;;;;;;;;;;22.80;49.00;;;;;;5033388;28;19925;-57
2023/07/18 01:07:53;;;;;;;;;;;22.80;49.00;;;;;;5033754;28;19929;-57
2023/07/18 01:10:23;;;;;;;;;;;22.80;49.00;;;;;;5029521;28;19925;-56
2023/07/18 01:12:51;;;;;;;;;;;22.80;49.00;;;;;;5034173;28;19925;-54
2023/07/18 01:15:18;;;;;;;;;;;22.70;48.90;;;;;;5027505;28;19929;-57
2023/07/18 01:17:46;;;;;;;;;;;22.70;49.00;;;;;;5031341;28;19928;-57
2023/07/18 01:20:16;;;;;;;;;;;22.70;49.00;;;;;;5029210;28;19935;-57
2023/07/18 01:22:45;;;;;;;;;;;22.80;49.10;;;;;;5050390;28;19932;-57
2023/07/18 01:25:14;;;;;;;;;;;22.70;49.10;;;;;;5031237;28;19935;-57
2023/07/18 01:27:41;;;;;;;;;;;22.70;49.10;;;;;;5033090;28;19952;-58
2023/07/18 01:30:09;;;;;;;;;;;22.70;49.10;;;;;;5049510;28;19979;-57
2023/07/18 01:32:35;;;;;;;;;;;22.70;49.20;;;;;;5025393;28;19933;-58
2023/07/18 01:35:03;;;;;;;;;;;22.70;49.20;;;;;;5027030;28;19928;-57
2023/07/18 01:37:30;;;;;;;;;;;22.70;49.20;;;;;;5030709;28;19928;-57
2023/07/18 01:39:58;;;;;;;;;;;22.70;49.20;;;;;;5033933;28;19929;-58
2023/07/18 01:42:25;;;;;;;;;;;22.70;49.30;;;;;;5047596;28;19989;-57
2023/07/18 01:44:52;;;;;;;;;;;22.70;49.30;;;;;;5030632;28;19925;-58
2023/07/18 01:47:18;;;;;;;;;;;22.70;49.30;;;;;;5030185;28;20019;-57
2023/07/18 01:49:45;;;;;;;;;;;22.70;49.30;;;;;;5032969;28;19925;-57
2023/07/18 01:52:12;;;;;;;;;;;22.70;49.30;;;;;;5032814;28;19955;-58
2023/07/18 01:54:39;;;;;;;;;;;22.70;49.30;;;;;;5033277;28;19933;-58
2023/07/18 01:57:07;;;;;;;;;;;22.70;49.30;;;;;;5033274;28;19972;-57
2023/07/18 01:59:34;;;;;;;;;;;22.70;49.40;;;;;;5034004;28;19925;-57
2023/07/18 02:02:04;;;;;;;;;;;22.70;49.30;;;;;;5049342;28;19928;-58
2023/07/18 02:04:31;;;;;;;;;;;22.70;49.30;;;;;;5032049;28;19925;-57
2023/07/18 02:06:58;;;;;;;;;;;22.70;49.40;;;;;;5048559;28;19932;-57
2023/07/18 02:09:25;;;;;;;;;;;22.70;50.00;;;;;;5021842;28;20008;-58
2023/07/18 02:11:52;;;;;;;;;;;22.70;49.40;;;;;;5030405;28;19932;-56
2023/07/18 02:14:20;;;;;;;;;;;22.70;49.40;;;;;;5033161;28;19924;-57
2023/07/18 02:16:47;;;;;;;;;;;22.70;49.40;;;;;;5028019;28;19925;-57
2023/07/18 02:19:14;;;;;;;;;;;22.70;49.40;;;;;;5029379;28;19960;-57
2023/07/18 02:21:41;;;;;;;;;;;22.70;49.40;;;;;;5034630;28;19929;-57
2023/07/18 02:24:07;;;;;;;;;;;22.70;49.40;;;;;;5031062;28;19932;-58
2023/07/18 02:26:34;;;;;;;;;;;22.70;49.40;;;;;;5047530;28;19929;-58
2023/07/18 02:29:01;;;;;;;;;;;22.70;49.40;;;;;;5030446;28;19925;-58
2023/07/18 02:31:29;;;;;;;;;;;22.70;49.40;;;;;;5028116;28;19929;-58
2023/07/18 02:33:57;;;;;;;;;;;22.70;49.40;;;;;;5028928;28;19935;-58
2023/07/18 02:36:24;;;;;;;;;;;22.70;49.40;;;;;;5023765;28;19925;-58
2023/07/18 02:38:51;;;;;;;;;;;22.70;49.40;;;;;;5034962;28;20289;-55
2023/07/18 02:41:18;;;;;;;;;;;22.70;49.40;;;;;;5029782;28;19932;-57
2023/07/18 02:43:46;;;;;;;;;;;22.70;49.40;;;;;;5047256;28;20024;-57
2023/07/18 02:46:12;;;;;;;;;;;22.70;49.40;;;;;;5049316;28;19932;-57
2023/07/18 02:48:41;;;;;;;;;;;22.70;49.40;;;;;;5035012;28;19939;-57
2023/07/18 02:51:07;;;;;;;;;;;22.70;49.40;;;;;;5035944;28;19931;-57
2023/07/18 02:53:35;;;;;;;;;;;22.70;49.40;;;;;;5053393;28;19960;-57
2023/07/18 02:56:02;;;;;;;;;;;22.70;49.40;;;;;;5032784;28;19972;-57
2023/07/18 02:58:28;;;;;;;;;;;22.70;49.40;;;;;;5032213;28;19925;-56
2023/07/18 03:00:55;;;;;;;;;;;22.70;49.30;;;;;;5033353;28;19932;-57
2023/07/18 03:03:22;;;;;;;;;;;22.60;49.30;;;;;;5031224;28;19928;-58
2023/07/18 03:05:52;;;;;;;;;;;22.60;49.30;;;;;;5030647;28;19925;-57
2023/07/18 03:08:19;;;;;;;;;;;22.60;49.30;;;;;;5035702;28;19925;-57
2023/07/18 03:10:46;;;;;;;;;;;22.60;49.90;;;;;;5049897;28;19937;-58
2023/07/18 03:13:12;;;;;;;;;;;22.60;49.30;;;;;;5050284;28;19929;-56
2023/07/18 03:15:39;;;;;;;;;;;22.60;49.30;;;;;;5026702;28;19925;-58
2023/07/18 03:18:06;;;;;;;;;;;22.60;49.30;;;;;;5032320;28;19933;-57
2023/07/18 03:20:33;;;;;;;;;;;22.60;49.20;;;;;;5034529;28;19933;-59
2023/07/18 03:23:01;;;;;;;;;;;22.60;49.20;;;;;;5030165;28;20138;-57
2023/07/18 03:25:28;;;;;;;;;;;22.60;49.20;;;;;;5029900;28;19971;-57
2023/07/18 03:27:55;;;;;;;;;;;22.60;49.20;;;;;;5035416;28;19936;-57
2023/07/18 03:30:22;;;;;;;;;;;22.60;49.20;;;;;;5051291;28;20408;-57
2023/07/18 03:32:49;;;;;;;;;;;22.60;49.20;;;;;;5034508;28;19928;-57
2023/07/18 03:35:16;;;;;;;;;;;22.60;49.20;;;;;;5054304;28;19924;-57
2023/07/18 03:37:43;;;;;;;;;;;22.60;49.20;;;;;;5052034;28;19931;-57
2023/07/18 03:40:15;;;;;;;;;;;22.60;49.20;;;;;;5035337;28;19983;-56
2023/07/18 03:42:42;;;;;;;;;;;22.60;49.20;;;;;;5051710;28;19929;-56
2023/07/18 03:45:10;;;;;;;;;;;22.60;49.20;;;;;;5052068;28;19932;-57
2023/07/18 03:47:37;;;;;;;;;;;22.60;49.20;;;;;;5028117;28;19929;-57
2023/07/18 03:50:04;;;;;;;;;;;22.60;49.20;;;;;;5029404;28;20019;-56
2023/07/18 03:52:30;;;;;;;;;;;22.60;49.20;;;;;;5035234;28;19925;-57
2023/07/18 03:54:57;;;;;;;;;;;22.60;49.30;;;;;;5035350;28;19929;-56
2023/07/18 03:57:27;;;;;;;;;;;22.60;49.30;;;;;;5034999;28;19925;-57
2023/07/18 03:59:53;;;;;;;;;;;22.60;49.30;;;;;;5033635;28;19968;-56
2023/07/18 04:02:20;;;;;;;;;;;22.60;49.30;;;;;;5032830;28;19932;-57
2023/07/18 04:04:47;;;;;;;;;;;22.60;49.30;;;;;;5035216;28;19936;-57
2023/07/18 04:07:14;;;;;;;;;;;22.60;49.30;;;;;;5034951;28;19929;-56
2023/07/18 04:09:41;;;;;;;;;;;22.60;49.30;;;;;;5035508;28;19982;-57
2023/07/18 04:12:08;;;;;;;;;;;22.60;49.30;;;;;;5032866;28;19929;-55
2023/07/18 04:14:36;;;;;;;;;;;22.60;49.30;;;;;;5033779;28;19932;-57
2023/07/18 04:17:03;;;;;;;;;;;22.60;49.30;;;;;;5028519;28;19925;-57
2023/07/18 04:19:30;;;;;;;;;;;22.60;49.30;;;;;;5034086;28;19933;-57
2023/07/18 04:21:57;;;;;;;;;;;22.50;49.30;;;;;;5030927;28;19960;-57
2023/07/18 04:24:24;;;;;;;;;;;22.60;49.40;;;;;;5034769;28;19931;-57
2023/07/18 04:26:51;;;;;;;;;;;22.60;49.40;;;;;;5028843;28;19924;-57
2023/07/18 04:29:18;;;;;;;;;;;22.60;49.40;;;;;;5034252;28;20000;-56
2023/07/18 04:31:47;;;;;;;;;;;22.60;49.40;;;;;;5046053;28;20293;-57
2023/07/18 04:34:15;;;;;;;;;;;22.60;49.50;;;;;;5029821;28;20029;-56
2023/07/18 04:36:42;;;;;;;;;;;22.60;49.50;;;;;;5028023;28;19932;-57
2023/07/18 04:39:09;;;;;;;;;;;22.60;49.50;;;;;;5033881;28;19929;-57
2023/07/18 04:41:36;;;;;;;;;;;22.60;49.50;;;;;;5033050;28;19928;-57
2023/07/18 04:44:03;;;;;;;;;;;22.60;49.50;;;;;;5030164;28;20016;-56
2023/07/18 04:46:30;;;;;;;;;;;22.60;49.50;;;;;;5033972;28;20023;-55
2023/07/18 04:48:58;;;;;;;;;;;22.60;49.60;;;;;;5019172;28;19975;-57
2023/07/18 04:51:25;;;;;;;;;;;22.60;49.60;;;;;;5051391;28;19932;-57
2023/07/18 04:53:52;;;;;;;;;;;22.60;49.60;;;;;;5030639;28;19932;-56
2023/07/18 04:56:18;;;;;;;;;;;22.60;49.60;;;;;;5032580;28;19933;-57
2023/07/18 04:58:45;;;;;;;;;;;22.60;49.70;;;;;;5029907;28;19925;-56
2023/07/18 05:01:12;;;;;;;;;;;22.60;49.70;;;;;;5027156;28;19948;-56
2023/07/18 05:03:39;;;;;;;;;;;22.60;49.70;;;;;;5030780;28;19929;-57
2023/07/18 05:06:07;;;;;;;;;;;22.60;49.70;;;;;;5033307;28;20366;-58
2023/07/18 05:08:34;;;;;;;;;;;22.60;49.70;;;;;;5028630;28;19925;-58
2023/07/18 05:11:01;;;;;;;;;;;22.60;49.70;;;;;;5034008;28;19925;-58
2023/07/18 05:13:28;;;;;;;;;;;22.60;49.70;;;;;;5032249;28;19952;-58
2023/07/18 05:15:55;;;;;;;;;;;22.60;49.70;;;;;;5032825;28;19924;-58
2023/07/18 05:18:22;;;;;;;;;;;22.60;49.70;;;;;;5031982;28;19929;-57
2023/07/18 05:20:48;;;;;;;;;;;22.60;49.80;;;;;;5024318;28;19925;-58
2023/07/18 05:23:17;;;;;;;;;;;22.60;49.80;;;;;;5029909;28;19932;-57
2023/07/18 05:25:44;;;;;;;;;;;22.60;49.80;;;;;;5033353;28;19939;-58
2023/07/18 05:28:11;;;;;;;;;;;22.60;49.80;;;;;;5032464;28;19925;-58
2023/07/18 05:30:37;;;;;;;;;;;22.60;49.80;;;;;;5051488;28;19932;-58
2023/07/18 05:33:04;;;;;;;;;;;22.60;49.80;;;;;;5028447;28;19933;-58
2023/07/18 05:35:31;;;;;;;;;;;22.60;49.80;;;;;;5023076;28;19951;-58
2023/07/18 05:37:58;;;;;;;;;;;22.60;49.90;;;;;;5031309;28;19925;-58
2023/07/18 05:40:26;;;;;;;;;;;22.60;49.90;;;;;;5027371;28;19924;-58
2023/07/18 05:42:53;;;;;;;;;;;22.60;49.90;;;;;;5032129;28;19933;-58
2023/07/18 05:45:19;;;;;;;;;;;22.60;49.90;;;;;;5030267;28;19995;-58
2023/07/18 05:47:46;;;;;;;;;;;22.60;50.00;;;;;;5035320;28;19933;-58
2023/07/18 05:50:12;;;;;;;;;;;22.60;50.00;;;;;;5024295;28;19986;-58
2023/07/18 05:52:39;;;;;;;;;;;22.60;50.00;;;;;;5032724;28;19929;-57
2023/07/18 05:55:07;;;;;;;;;;;22.60;50.00;;;;;;5016393;28;19925;-58
2023/07/18 05:57:35;;;;;;;;;;;22.60;50.10;;;;;;5021754;28;19987;-58
2023/07/18 06:00:05;;;;;;;;;;;22.60;50.10;;;;;;5021871;28;20015;-58
2023/07/18 06:02:33;;;;;;;;;;;22.60;50.10;;;;;;5020116;28;19924;-58
2023/07/18 06:05:00;;;;;;;;;;;22.60;50.10;;;;;;5025993;28;19929;-58
2023/07/18 06:07:27;;;;;;;;;;;22.60;50.20;;;;;;5020802;28;19925;-58
2023/07/18 06:09:53;;;;;;;;;;;22.60;50.20;;;;;;5013252;28;19991;-58
2023/07/18 06:12:20;;;;;;;;;;;22.60;50.20;;;;;;5023133;28;19944;-58
2023/07/18 06:14:48;;;;;;;;;;;22.70;50.30;;;;;;5026704;28;19929;-58
2023/07/18 06:17:16;;;;;;;;;;;22.70;50.30;;;;;;5033093;28;20000;-58
2023/07/18 06:19:46;;;;;;;;;;;22.60;50.20;;;;;;5026517;28;20292;-58
2023/07/18 06:22:13;;;;;;;;;;;22.60;50.20;;;;;;5025187;28;19929;-59
2023/07/18 06:24:40;;;;;;;;;;;22.70;50.40;;;;;;5021146;28;19929;-58
2023/07/18 06:27:07;;;;;;;;;;;22.70;50.30;;;;;;5046378;28;19925;-57
2023/07/18 06:29:34;;;;;;;;;;;22.70;50.40;;;;;;5045024;28;19928;-58
2023/07/18 06:32:05;;;;;;;;;;;22.70;50.40;;;;;;5041512;28;19925;-57
2023/07/18 06:34:33;;;;;;;;;;;22.70;50.40;;;;;;5029255;28;19951;-57
2023/07/18 06:37:02;;;;;;;;;;;22.70;50.40;;;;;;5028515;28;20004;-57
2023/07/18 06:39:29;;;;;;;;;;;22.70;50.40;;;;;;5042019;28;19925;-57
2023/07/18 06:41:56;;;;;;;;;;;22.70;50.40;;;;;;5028952;28;19937;-57
2023/07/18 06:44:23;;;;;;;;;;;22.70;50.40;;;;;;5018359;28;19925;-57
2023/07/18 06:46:50;;;;;;;;;;;22.70;50.40;;;;;;5022254;28;19925;-57
2023/07/18 06:49:20;;;;;;;;;;;22.70;50.40;;;;;;5014564;28;19932;-56
2023/07/18 06:51:47;;;;;;;;;;;22.70;50.50;;;;;;5029315;28;19955;-56
2023/07/18 06:54:14;;;;;;;;;;;22.70;50.50;;;;;;5020754;28;19925;-58
2023/07/18 06:56:42;;;;;;;;;;;22.70;50.50;;;;;;5049864;28;19936;-58
2023/07/18 06:59:09;;;;;;;;;;;22.70;50.50;;;;;;5022156;28;19948;-58
2023/07/18 07:01:36;;;;;;;;;;;22.70;50.50;;;;;;5026250;28;20019;-58
2023/07/18 07:04:03;;;;;;;;;;;22.80;50.60;;;;;;5029416;28;20488;-58
2023/07/18 07:06:31;;;;;;;;;;;22.80;50.50;;;;;;5026042;28;19975;-56
2023/07/18 07:08:58;;;;;;;;;;;22.80;50.50;;;;;;5026626;28;19925;-58
2023/07/18 07:11:27;;;;;;;;;;;22.80;50.60;;;;;;5028269;28;19925;-57
2023/07/18 07:13:54;;;;;;;;;;;22.80;50.60;;;;;;5048743;28;19926;-58
2023/07/18 07:16:21;;;;;;;;;;;22.80;50.50;;;;;;5019882;28;19925;-57
2023/07/18 07:18:50;;;;;;;;;;;22.80;50.50;;;;;;5038285;28;19928;-57
2023/07/18 07:21:17;;;;;;;;;;;22.80;50.60;;;;;;5019407;28;20000;-58
2023/07/18 07:23:45;;;;;;;;;;;22.80;50.60;;;;;;5025552;28;19925;-57
2023/07/18 07:26:12;;;;;;;;;;;22.80;50.60;;;;;;5031961;28;19925;-58
2023/07/18 07:28:40;;;;;;;;;;;22.80;50.60;;;;;;5028777;28;19932;-57
2023/07/18 07:31:06;;;;;;;;;;;22.80;50.60;;;;;;5034436;28;19932;-57
2023/07/18 07:33:33;;;;;;;;;;;22.80;50.60;;;;;;5026248;28;19928;-57
2023/07/18 07:36:00;;;;;;;;;;;22.80;50.60;;;;;;5026604;28;19929;-59
2023/07/18 07:38:27;;;;;;;;;;;22.80;50.70;;;;;;5026979;28;20365;-57
2023/07/18 07:40:55;;;;;;;;;;;22.80;50.70;;;;;;5028377;28;19932;-55
2023/07/18 07:43:21;;;;;;;;;;;22.90;50.80;;;;;;5026352;28;19936;-57
2023/07/18 07:45:48;;;;;;;;;;;22.90;50.80;;;;;;5026917;28;19952;-57
2023/07/18 07:48:15;;;;;;;;;;;22.90;50.80;;;;;;5030737;28;19936;-56
2023/07/18 07:50:43;;;;;;;;;;;22.80;50.70;;;;;;5030319;28;19929;-57
2023/07/18 07:53:10;;;;;;;;;;;22.90;50.80;;;;;;5045889;28;19932;-58
2023/07/18 07:55:37;;;;;;;;;;;22.90;50.90;;;;;;5029777;28;19929;-57
2023/07/18 07:58:04;;;;;;;;;;;22.90;50.90;;;;;;5045688;28;19983;-58
2023/07/18 08:00:30;;;;;;;;;;;22.90;50.80;;;;;;5040190;28;19925;-58
2023/07/18 08:02:57;;;;;;;;;;;22.90;50.80;;;;;;5047806;28;20234;-58
2023/07/18 08:05:24;;;;;;;;;;;22.90;50.80;;;;;;5032818;28;19932;-58
2023/07/18 08:07:52;;;;;;;;;;;22.90;50.80;;;;;;5028328;28;19987;-58
2023/07/18 08:10:19;;;;;;;;;;;22.90;50.80;;;;;;5021771;28;19925;-58
2023/07/18 08:12:46;;;;;;;;;;;22.90;50.70;;;;;;5028692;28;19933;-59
2023/07/18 08:15:14;;;;;;;;;;;22.90;50.70;;;;;;5035389;28;19929;-58
2023/07/18 08:17:41;;;;;;;;;;;22.90;50.60;;;;;;5034855;28;19925;-57
2023/07/18 08:20:10;;;;;;;;;;;23.00;50.70;;;;;;5024221;28;19932;-58
2023/07/18 08:22:36;;;;;;;;;;;23.00;50.60;;;;;;5051378;28;19924;-59
2023/07/18 08:25:04;;;;;;;;;;;23.00;50.60;;;;;;5028954;28;20221;-58
2023/07/18 08:27:31;;;;;;;;;;;23.00;50.60;;;;;;5052576;28;19925;-58
2023/07/18 08:29:57;;;;;;;;;;;23.00;50.60;;;;;;5033478;28;19925;-57
2023/07/18 08:32:26;;;;;;;;;;;23.00;50.50;;;;;;5029775;28;19925;-57
2023/07/18 08:34:53;;;;;;;;;;;22.90;50.40;;;;;;5050624;28;19928;-58
2023/07/18 08:37:19;;;;;;;;;;;23.00;50.40;;;;;;5034817;28;19936;-58
2023/07/18 08:39:46;;;;;;;;;;;23.00;50.40;;;;;;5034436;28;19940;-59
2023/07/18 08:42:14;;;;;;;;;;;22.90;50.30;;;;;;5025776;28;19936;-58
2023/07/18 08:44:40;;;;;;;;;;;23.00;50.30;;;;;;5048155;28;19928;-57
2023/07/18 08:47:07;;;;;;;;;;;23.00;50.30;;;;;;5034608;28;19932;-57
2023/07/18 08:49:36;;;;;;;;;;;23.00;50.20;;;;;;5033373;28;19979;-57
2023/07/18 08:52:04;;;;;;;;;;;23.00;50.20;;;;;;5034602;28;19929;-58
2023/07/18 08:54:30;;;;;;;;;;;23.00;50.20;;;;;;5051515;28;19970;-58
2023/07/18 08:56:57;;;;;;;;;;;23.00;50.20;;;;;;5048488;28;19924;-58
2023/07/18 08:59:24;;;;;;;;;;;23.00;50.10;;;;;;5047607;28;20596;-58
2023/07/18 09:01:51;;;;;;;;;;;23.00;50.10;;;;;;5033863;28;19925;-58
2023/07/18 09:04:18;;;;;;;;;;;23.00;50.00;;;;;;5031436;28;19925;-58
2023/07/18 09:06:49;;;;;;;;;;;23.00;50.00;;;;;;5043880;28;19931;-56
2023/07/18 09:09:17;;;;;;;;;;;23.00;50.00;;;;;;5029757;28;19925;-57
2023/07/18 09:11:57;;;;;;;;;;;23.10;50.10;;;;;;5034394;28;20023;-57
2023/07/18 09:14:27;;;;;;;;;;;23.10;50.00;;;;;;5042775;28;19935;-58
2023/07/18 09:16:54;;;;;;;;;;;23.10;50.00;;;;;;5034590;28;19925;-57
2023/07/18 09:19:27;;;;;;;;;;;23.00;49.90;;;;;;5032298;28;19974;-57
2023/07/18 09:22:00;;;;;;;;;;;23.00;49.90;;;;;;5033804;28;19932;-58
2023/07/18 09:24:30;;;;;;;;;;;23.10;49.90;;;;;;5034436;28;19986;-58
2023/07/18 09:26:57;;;;;;;;;;;23.00;49.70;;;;;;5034266;28;19925;-55
2023/07/18 09:29:25;;;;;;;;;;;23.10;49.80;;;;;;5034179;28;19924;-57
2023/07/18 09:31:51;;;;;;;;;;;23.10;49.70;;;;;;5032709;28;19925;-58
2023/07/18 09:34:19;;;;;;;;;;;23.10;49.60;;;;;;5022694;28;19925;-58
2023/07/18 09:36:54;;;;;;;;;;;23.00;49.40;;;;;;5050191;28;19924;-58
2023/07/18 09:39:23;;;;;;;;;;;23.10;49.40;;;;;;5034437;28;19964;-57
2023/07/18 09:41:49;;;;;;;;;;;23.10;49.40;;;;;;5031310;28;19925;-59
2023/07/18 09:44:16;;;;;;;;;;;23.10;49.40;;;;;;5027639;28;19925;-56
2023/07/18 09:46:43;;;;;;;;;;;23.10;49.30;;;;;;5026089;28;19928;-58
2023/07/18 09:49:10;;;;;;;;;;;23.10;49.30;;;;;;5031229;28;19978;-56
2023/07/18 09:51:37;;;;;;;;;;;23.10;49.30;;;;;;5022813;28;19971;-58
2023/07/18 09:54:05;;;;;;;;;;;23.10;49.30;;;;;;5021024;28;19940;-57
2023/07/18 09:56:34;;;;;;;;;;;23.10;49.20;;;;;;5053318;28;20378;-56
2023/07/18 09:59:04;;;;;;;;;;;23.10;49.10;;;;;;5023734;28;20020;-58
2023/07/18 10:01:30;;;;;;;;;;;23.00;48.90;;;;;;5029703;28;19982;-57
2023/07/18 10:03:57;;;;;;;;;;;23.10;49.00;;;;;;5050387;28;19925;-59
2023/07/18 10:06:24;;;;;;;;;;;23.10;49.00;;;;;;5017259;28;19929;-57
2023/07/18 10:08:51;;;;;;;;;;;23.00;48.90;;;;;;5025585;28;19987;-58
2023/07/18 10:11:17;;;;;;;;;;;23.10;48.90;;;;;;5024301;28;19929;-58
2023/07/18 10:13:59;;;;;;;;;;;23.10;48.80;;;;;;5027428;28;19935;-58
2023/07/18 10:16:27;;;;;;;;;;;23.10;48.70;;;;;;5035876;28;19924;-57
2023/07/18 10:18:54;;;;;;;;;;;23.10;48.80;;;;;;5025641;28;19969;-56
2023/07/18 10:21:28;;;;;;;;;;;23.00;48.60;;;;;;5027991;28;20519;-58
2023/07/18 10:23:55;;;;;;;;;;;23.10;48.60;;;;;;5024000;28;19984;-58
2023/07/18 10:26:29;;;;;;;;;;;23.10;48.50;;;;;;5044742;28;19925;-57
2023/07/18 10:28:56;;;;;;;;;;;23.10;48.50;;;;;;5039124;28;19925;-59
2023/07/18 10:31:28;;;;;;;;;;;23.10;48.40;;;;;;5022998;28;19928;-60
2023/07/18 10:34:09;;;;;;;;;;;23.10;48.40;;;;;;5021941;28;19936;-58
2023/07/18 10:36:36;;;;;;;;;;;23.10;48.30;;;;;;5024673;28;19925;-58
2023/07/18 10:39:07;;;;;;;;;;;23.10;48.20;;;;;;5046202;28;19940;-58
2023/07/18 10:41:34;;;;;;;;;;;23.10;48.20;;;;;;5021604;28;19940;-58
2023/07/18 10:44:01;;;;;;;;;;;23.10;48.10;;;;;;5046657;28;20250;-58
2023/07/18 10:46:38;;;;;;;;;;;23.10;48.00;;;;;;5044956;28;19940;-57
2023/07/18 10:49:05;;;;;;;;;;;23.10;48.50;;;;;;5049821;28;19959;-57
2023/07/18 10:51:31;;;;;;;;;;;23.10;47.90;;;;;;5018834;28;19925;-57
2023/07/18 10:53:59;;;;;;;;;;;23.10;48.00;;;;;;5027357;28;19925;-57
2023/07/18 10:56:26;;;;;;;;;;;23.00;47.80;;;;;;5038842;28;19929;-57
2023/07/18 10:58:52;;;;;;;;;;;23.10;47.90;;;;;;5031835;28;19948;-58
2023/07/18 11:01:20;;;;;;;;;;;23.00;47.70;;;;;;5030959;28;19929;-57
2023/07/18 11:03:48;;;;;;;;;;;23.00;47.60;;;;;;5020617;28;20020;-58
2023/07/18 11:06:15;;;;;;;;;;;23.00;47.60;;;;;;5033129;28;19932;-57
2023/07/18 11:08:47;;;;;;;;;;;23.00;47.60;;;;;;5025815;28;19932;-58
2023/07/18 11:11:14;;;;;;;;;;;23.00;47.70;;;;;;5030338;28;19929;-58
2023/07/18 11:13:42;;;;;;;;;;;23.00;47.80;;;;;;5036119;28;20009;-58
2023/07/18 11:16:10;;;;;;;;;;;23.00;47.80;;;;;;5033279;28;19981;-58
2023/07/18 11:18:36;;;;;;;;;;;23.10;48.00;;;;;;5030074;28;19924;-59
2023/07/18 11:21:05;;;;;;;;;;;23.10;47.90;;;;;;5032934;28;19925;-58
2023/07/18 11:23:32;;;;;;;;;;;23.10;47.80;;;;;;5035570;28;19940;-58
2023/07/18 11:25:58;;;;;;;;;;;23.10;47.70;;;;;;5033261;28;19936;-59
2023/07/18 11:28:28;;;;;;;;;;;23.10;47.60;;;;;;5031335;28;19936;-58
2023/07/18 11:30:55;;;;;;;;;;;23.10;47.60;;;;;;5047423;28;19956;-58
2023/07/18 11:33:23;;;;;;;;;;;23.00;47.40;;;;;;5035680;28;19929;-55
2023/07/18 11:35:49;;;;;;;;;;;23.10;47.40;;;;;;5031838;28;19961;-59
2023/07/18 11:38:18;;;;;;;;;;;23.10;47.50;;;;;;5035283;28;19925;-58
2023/07/18 11:40:45;;;;;;;;;;;23.10;47.50;;;;;;5035424;28;19972;-59
2023/07/18 11:43:17;;;;;;;;;;;23.10;47.70;;;;;;5027864;28;19925;-59
2023/07/18 11:45:44;;;;;;;;;;;23.10;47.70;;;;;;5053741;28;19925;-58
2023/07/18 11:48:11;;;;;;;;;;;23.10;47.60;;;;;;5028289;28;20022;-58
2023/07/18 11:50:38;;;;;;;;;;;23.10;47.50;;;;;;5031505;28;20016;-58
2023/07/18 11:53:05;;;;;;;;;;;23.10;47.40;;;;;;5052397;28;19928;-59
2023/07/18 11:55:33;;;;;;;;;;;23.10;47.30;;;;;;5046917;28;19924;-58
2023/07/18 11:58:00;;;;;;;;;;;23.10;47.30;;;;;;5030490;28;19925;-59
2023/07/18 12:00:27;;;;;;;;;;;23.10;47.20;;;;;;5028389;28;19924;-59
2023/07/18 12:02:53;;;;;;;;;;;23.10;47.20;;;;;;5053089;28;19925;-58
2023/07/18 12:05:20;;;;;;;;;;;23.10;47.10;;;;;;5033214;28;19925;-58
2023/07/18 12:07:49;;;;;;;;;;;23.10;47.40;;;;;;5046484;28;19947;-58
2023/07/18 12:10:16;;;;;;;;;;;23.10;47.30;;;;;;5029368;28;19929;-59
2023/07/18 12:12:45;;;;;;;;;;;23.10;47.20;;;;;;5033596;28;19932;-60
2023/07/18 12:15:12;;;;;;;;;;;23.10;47.20;;;;;;5025728;28;19924;-58
2023/07/18 12:17:39;;;;;;;;;;;23.20;47.00;;;;;;5030277;28;19979;-58
2023/07/18 12:20:06;;;;;;;;;;;23.10;47.60;;;;;;5020032;28;19933;-59
2023/07/18 12:22:33;;;;;;;;;;;23.10;47.00;;;;;;5043079;28;19931;-58
2023/07/18 12:25:01;;;;;;;;;;;23.10;46.90;;;;;;5028120;28;19925;-58
2023/07/18 12:27:28;;;;;;;;;;;23.10;46.90;;;;;;5024757;28;19928;-58
2023/07/18 12:29:56;;;;;;;;;;;23.10;46.90;;;;;;5026492;28;20012;-59
2023/07/18 12:32:23;;;;;;;;;;;23.20;47.10;;;;;;5037304;28;19925;-58
2023/07/18 12:34:50;;;;;;;;;;;23.20;47.00;;;;;;5031682;28;19928;-58
2023/07/18 12:37:16;;;;;;;;;;;23.10;46.90;;;;;;5032406;28;19940;-59
2023/07/18 12:39:43;;;;;;;;;;;23.10;47.10;;;;;;5040733;28;19931;-59
2023/07/18 12:42:10;;;;;;;;;;;23.20;47.30;;;;;;5027343;28;19925;-58
2023/07/18 12:44:37;;;;;;;;;;;23.20;47.30;;;;;;5029150;28;19929;-59
2023/07/18 12:47:06;;;;;;;;;;;23.20;47.30;;;;;;5024055;28;20023;-59
2023/07/18 12:49:33;;;;;;;;;;;23.20;47.30;;;;;;5032183;28;19932;-59
2023/07/18 12:52:00;;;;;;;;;;;23.20;47.40;;;;;;5047530;28;20447;-58
2023/07/18 12:54:27;;;;;;;;;;;23.20;47.40;;;;;;5023047;28;20380;-58
2023/07/18 12:56:53;;;;;;;;;;;23.20;47.40;;;;;;5024535;28;19986;-59
2023/07/18 12:59:20;;;;;;;;;;;23.20;47.50;;;;;;5028474;28;19925;-58
2023/07/18 13:01:47;;;;;;;;;;;23.30;47.50;;;;;;5024456;28;19925;-59
2023/07/18 13:04:15;;;;;;;;;;;23.30;47.60;;;;;;5028480;28;19987;-58
2023/07/18 13:06:42;;;;;;;;;;;23.30;47.60;;;;;;5028585;28;19986;-59
2023/07/18 13:09:08;;;;;;;;;;;23.20;47.50;;;;;;5030542;28;19959;-59
2023/07/18 13:11:35;;;;;;;;;;;23.20;47.40;;;;;;5035328;28;19925;-57
2023/07/18 13:14:02;;;;;;;;;;;23.20;47.20;;;;;;5029340;28;19925;-58
2023/07/18 13:16:29;;;;;;;;;;;23.20;47.10;;;;;;5027973;28;19924;-57
2023/07/18 13:18:56;;;;;;;;;;;23.20;47.10;;;;;;5034548;28;19928;-58
2023/07/18 13:21:24;;;;;;;;;;;23.30;47.30;;;;;;5025867;28;19924;-57
2023/07/18 13:23:51;;;;;;;;;;;23.20;47.10;;;;;;5019231;28;19979;-56
2023/07/18 13:26:18;;;;;;;;;;;23.20;47.00;;;;;;5046786;28;19925;-57
2023/07/18 13:28:45;;;;;;;;;;;23.20;47.00;;;;;;5039557;28;19932;-57
2023/07/18 13:31:11;;;;;;;;;;;23.20;47.00;;;;;;5049595;28;19959;-59
2023/07/18 13:33:39;;;;;;;;;;;23.20;47.00;;;;;;5055826;28;19928;-59
2023/07/18 13:36:06;;;;;;;;;;;23.20;46.90;;;;;;5045672;28;19928;-57
2023/07/18 13:38:34;;;;;;;;;;;23.20;46.80;;;;;;5025167;28;19975;-59
2023/07/18 13:41:03;;;;;;;;;;;23.20;46.70;;;;;;5049086;28;19928;-58
2023/07/18 13:43:30;;;;;;;;;;;23.20;46.60;;;;;;5029344;28;20028;-60
2023/07/18 13:45:57;;;;;;;;;;;23.20;46.60;;;;;;5028657;28;19983;-59
2023/07/18 13:48:24;;;;;;;;;;;23.20;46.70;;;;;;5027221;28;19925;-58
2023/07/18 13:50:51;;;;;;;;;;;23.20;46.80;;;;;;5028825;28;19939;-58
2023/07/18 13:53:18;;;;;;;;;;;23.10;46.70;;;;;;5046471;28;19924;-59
2023/07/18 13:55:47;;;;;;;;;;;23.10;46.70;;;;;;5027677;28;19931;-59
2023/07/18 13:58:14;;;;;;;;;;;23.10;46.70;;;;;;5025149;28;19932;-59
2023/07/18 14:00:40;;;;;;;;;;;23.10;46.70;;;;;;5022563;28;19925;-58
2023/07/18 14:03:07;;;;;;;;;;;23.10;46.70;;;;;;5028139;28;19987;-60
2023/07/18 14:05:34;;;;;;;;;;;23.10;46.60;;;;;;5023890;28;19936;-58
2023/07/18 14:08:02;;;;;;;;;;;23.10;46.50;;;;;;5026328;28;19935;-58
2023/07/18 14:10:29;;;;;;;;;;;23.10;46.60;;;;;;5025767;28;19931;-58
2023/07/18 14:12:57;;;;;;;;;;;23.10;46.60;;;;;;5041448;28;19937;-59
2023/07/18 14:15:24;;;;;;;;;;;23.10;46.60;;;;;;5024235;28;19925;-59
2023/07/18 14:17:51;;;;;;;;;;;23.10;46.70;;;;;;5023657;28;19932;-58